Meteorología y climatología de Navarra
Datos de la estación - Meteo Navarra

Estación de Estella GN

Altitud 486 m.


Datos desde el 30/06/2020 hasta el 01/07/2020 en horario solar
Los datos son PROVISIONALES

Anterior Página 1 de 1 Siguiente Descargar: Formato para Excel 2000 o superior   Formato csv   Formato para OpenOffice Calc
Fecha Temperatura Humedad relativa Radiación global Insolación Precipitación Vel. viento 10 m Vel. viento 10 m Dir. viento 10 m
ºC % W/m² s l/m² m/s km/h º
30/06/2020 0:00 14.0 87 0.0 0 0.0 0.7 2.4 197
30/06/2020 0:10 14.3 88 0.0 0 0.0 0.7 2.5 283
30/06/2020 0:20 14.4 89 0.0 0 0.0 1.0 3.5 291
30/06/2020 0:30 14.4 88 0.0 0 0.0 0.6 2.2 306
30/06/2020 0:40 14.0 92 0.0 0 0.0 0.4 1.4 307
30/06/2020 0:50 13.7 92 0.0 0 0.0 0.6 2.3 252
30/06/2020 1:00 14.0 91 0.0 0 0.0 1.1 3.9 298
30/06/2020 1:10 14.4 88 0.0 0 0.0 1.6 5.9 269
30/06/2020 1:20 14.6 86 0.0 0 0.0 1.9 6.9 281
30/06/2020 1:30 14.6 86 0.0 0 0.0 1.4 5.0 270
30/06/2020 1:40 14.5 86 0.0 0 0.0 1.3 4.6 272
30/06/2020 1:50 14.5 85 0.0 0 0.0 1.9 6.9 285
30/06/2020 2:00 14.5 85 0.0 0 0.0 2.0 7.2 298
30/06/2020 2:10 14.5 85 0.0 0 0.0 2.0 7.1 281
30/06/2020 2:20 14.5 83 0.0 0 0.0 2.0 7.1 295
30/06/2020 2:30 14.7 81 0.0 0 0.0 2.1 7.5 283
30/06/2020 2:40 14.4 84 0.0 0 0.0 1.7 6.0 301
30/06/2020 2:50 14.1 86 0.0 0 0.0 1.2 4.2 284
30/06/2020 3:00 13.8 87 0.0 0 0.0 0.5 1.9 350
30/06/2020 3:10 13.3 90 0.0 0 0.0 0.4 1.4 302
30/06/2020 3:20 13.4 90 0.0 0 0.0 0.4 1.4 314
30/06/2020 3:30 13.4 89 0.0 0 0.0 0.5 1.7 308
30/06/2020 3:40 13.3 89 0.0 0 0.0 1.2 4.4 321
30/06/2020 3:50 13.2 89 0.0 0 0.0 0.7 2.5 6
30/06/2020 4:00 12.8 93 0.0 0 0.0 0.4 1.5 30
30/06/2020 4:10 12.9 94 0.0 0 0.0 0.2 0.7 325
30/06/2020 4:20 13.0 93 0.0 0 0.0 0.8 2.9 348
30/06/2020 4:30 12.9 94 0.0 0 0.0 0.2 0.8 306
30/06/2020 4:40 12.7 94 0.0 0 0.0 0.4 1.4 293
30/06/2020 4:50 12.8 94 0.0 0 0.0 1.2 4.4 2
30/06/2020 5:00 12.9 93 5.4 0 0.0 1.0 3.7 35
30/06/2020 5:10 12.8 92 18.5 0 0.0 0.7 2.5 39
30/06/2020 5:20 12.6 87 23.0 0 0.0 0.4 1.5 6
30/06/2020 5:30 12.7 88 25.9 0 0.0 0.5 1.8 360
30/06/2020 5:40 12.9 92 92.8 450 0.0 1.3 4.7 341
30/06/2020 5:50 14.0 87 134.9 600 0.0 0.9 3.2 335
30/06/2020 6:00 14.8 81 162.3 600 0.0 1.5 5.3 358
30/06/2020 6:10 15.0 81 191.7 600 0.0 0.9 3.1 326
30/06/2020 6:20 15.6 76 221.5 600 0.0 1.1 3.9 331
30/06/2020 6:30 16.2 74 253.6 600 0.0 0.9 3.1 313
30/06/2020 6:40 16.2 76 287.4 600 0.0 1.0 3.7 307
30/06/2020 6:50 16.8 73 315.7 600 0.0 0.9 3.1 309
30/06/2020 7:00 17.0 72 348.1 600 0.0 1.0 3.6 305
30/06/2020 7:10 17.0 72 185.6 150 0.0 1.4 5.0 299
30/06/2020 7:20 16.6 74 185.0 102 0.0 1.1 3.9 317
30/06/2020 7:30 17.5 71 503.4 600 0.0 1.2 4.4 306
30/06/2020 7:40 18.7 65 476.1 600 0.0 1.1 3.9 299
30/06/2020 7:50 19.2 63 501.9 600 0.0 1.2 4.2 293
30/06/2020 8:00 19.5 62 533.2 600 0.0 1.1 3.9 295
30/06/2020 8:10 20.1 60 544.2 564 0.0 1.2 4.4 292
30/06/2020 8:20 20.4 59 413.9 378 0.0 1.1 3.8 307
30/06/2020 8:30 20.8 57 432.8 372 0.0 1.2 4.2 285
30/06/2020 8:40 20.8 56 345.3 188 0.0 1.1 4.1 291
30/06/2020 8:50 21.3 55 402.4 186 0.0 0.9 3.1 245
30/06/2020 9:00 22.1 49 554.4 512 0.0 0.7 2.7 85
30/06/2020 9:10 22.5 51 735.7 600 0.0 1.3 4.8 195
30/06/2020 9:20 22.9 51 762.3 600 0.0 1.4 5.0 208
30/06/2020 9:30 23.5 51 779.1 600 0.0 1.0 3.5 172
30/06/2020 9:40 24.3 52 795.0 600 0.0 1.1 3.8 138
30/06/2020 9:50 24.0 55 817.0 600 0.0 1.9 6.7 124
30/06/2020 10:00 24.2 58 838.0 600 0.0 2.0 7.1 180
30/06/2020 10:10 24.3 58 858.0 600 0.0 2.2 7.8 190
30/06/2020 10:20 24.5 59 876.0 600 0.0 1.3 4.6 137
30/06/2020 10:30 24.7 58 890.0 600 0.0 2.1 7.7 160
30/06/2020 10:40 24.9 57 921.0 600 0.0 1.5 5.3 162
30/06/2020 10:50 24.7 56 943.0 600 0.0 1.8 6.5 195
30/06/2020 11:00 25.2 54 957.0 600 0.0 1.8 6.6 194
30/06/2020 11:10 25.5 53 971.0 600 0.0 1.3 4.8 174
30/06/2020 11:20 26.0 51 979.0 600 0.0 1.6 5.8 174
30/06/2020 11:30 26.4 49 990.0 600 0.0 1.8 6.4 198
30/06/2020 11:40 26.3 50 999.0 600 0.0 2.2 7.9 186
30/06/2020 11:50 26.7 51 994.0 600 0.0 1.5 5.2 180
30/06/2020 12:00 26.9 49 999.0 600 0.0 1.7 6.0 139
30/06/2020 12:10 27.8 45 1008.0 600 0.0 1.5 5.2 142
30/06/2020 12:20 27.7 43 1008.0 600 0.0 1.3 4.8 145
30/06/2020 12:30 28.1 40 1010.0 600 0.0 1.6 5.7 164
30/06/2020 12:40 28.0 38 1005.0 600 0.0 1.8 6.5 209
30/06/2020 12:50 28.5 39 1001.0 600 0.0 2.1 7.6 188
30/06/2020 13:00 28.6 37 993.0 600 0.0 2.0 7.3 198
30/06/2020 13:10 29.0 37 980.0 600 0.0 1.5 5.5 158
30/06/2020 13:20 28.8 38 972.0 600 0.0 2.5 8.9 169
30/06/2020 13:30 29.2 38 960.0 600 0.0 1.2 4.2 134
30/06/2020 13:40 30.0 37 946.0 600 0.0 1.5 5.5 137
30/06/2020 13:50 29.7 37 931.0 600 0.0 2.0 7.3 175
30/06/2020 14:00 29.6 38 916.0 600 0.0 1.6 5.6 153
30/06/2020 14:10 29.9 38 888.0 600 0.0 2.0 7.0 183
30/06/2020 14:20 30.0 39 857.0 600 0.0 1.5 5.3 135
30/06/2020 14:30 30.0 39 839.0 600 0.0 2.0 7.3 186
30/06/2020 14:40 30.3 39 818.0 600 0.0 1.5 5.4 179
30/06/2020 14:50 30.5 39 797.1 600 0.0 1.7 6.0 202
30/06/2020 15:00 30.6 39 775.9 600 0.0 1.5 5.3 216
30/06/2020 15:10 30.8 38 751.9 600 0.0 1.0 3.7 188
30/06/2020 15:20 30.9 38 734.7 600 0.0 1.7 6.0 198
30/06/2020 15:30 31.1 37 706.7 600 0.0 1.6 5.6 199
30/06/2020 15:40 31.0 37 566.8 462 0.0 1.7 6.1 194
30/06/2020 15:50 30.8 37 643.5 598 0.0 2.0 7.3 167
30/06/2020 16:00 31.2 36 620.1 600 0.0 0.9 3.4 158
30/06/2020 16:10 31.5 35 603.7 600 0.0 1.5 5.5 162
30/06/2020 16:20 31.3 35 605.8 600 0.0 1.7 6.3 193
30/06/2020 16:30 31.6 34 640.1 600 0.0 1.8 6.5 181
30/06/2020 16:40 31.6 34 568.4 600 0.0 1.1 4.0 198
30/06/2020 16:50 31.6 34 572.4 600 0.0 1.6 5.9 191
30/06/2020 17:00 31.4 34 485.2 600 0.0 1.9 6.9 194
30/06/2020 17:10 31.1 35 408.6 600 0.0 2.3 8.1 203
30/06/2020 17:20 30.6 36 183.7 166 0.0 2.9 10.3 199
30/06/2020 17:30 29.8 37 404.9 538 0.0 0.9 3.1 176
30/06/2020 17:40 30.1 36 293.8 556 0.0 1.3 4.7 162
30/06/2020 17:50 29.2 38 331.0 542 0.0 1.0 3.6 115
30/06/2020 18:00 29.1 39 262.9 498 0.0 1.2 4.4 87
30/06/2020 18:10 28.3 40 82.4 0 0.0 0.8 3.0 154
30/06/2020 18:20 27.5 42 41.6 0 0.0 1.1 4.1 87
30/06/2020 18:30 27.1 43 22.6 0 0.0 2.0 7.1 90
30/06/2020 18:40 27.0 44 19.0 0 0.0 1.2 4.5 86
30/06/2020 18:50 26.9 45 20.1 0 0.0 1.7 6.3 50
30/06/2020 19:00 26.9 44 41.0 2 0.0 2.2 7.9 291
30/06/2020 19:10 26.4 47 54.9 106 0.0 2.0 7.3 304
30/06/2020 19:20 25.1 54 30.1 0 0.0 1.5 5.5 345
30/06/2020 19:30 24.8 54 23.3 0 0.0 2.1 7.4 357
30/06/2020 19:40 24.7 53 14.2 0 0.0 1.5 5.3 52
30/06/2020 19:50 24.6 53 0.0 0 0.0 0.5 1.9 53
30/06/2020 20:00 24.7 53 0.0 0 0.0 0.6 2.2 61
30/06/2020 20:10 24.5 53 0.0 0 0.0 1.3 4.5 69
30/06/2020 20:20 24.8 51 0.0 0 0.0 1.4 5.0 108
30/06/2020 20:30 24.7 52 0.0 0 0.0 1.4 5.0 13
30/06/2020 20:40 24.7 53 0.0 0 0.0 1.0 3.5 179
30/06/2020 20:50 23.8 58 0.0 0 0.0 0.5 1.7 284
30/06/2020 21:00 23.5 59 0.0 0 0.0 0.9 3.1 81
30/06/2020 21:10 23.2 60 0.0 0 0.0 0.9 3.3 184
30/06/2020 21:20 23.1 60 0.0 0 0.0 1.2 4.3 249
30/06/2020 21:30 23.5 58 0.0 0 0.0 1.0 3.5 53
30/06/2020 21:40 23.2 59 0.0 0 0.0 1.4 4.9 4
30/06/2020 21:50 22.4 61 0.0 0 0.0 0.5 1.8 43
30/06/2020 22:00 22.5 60 0.0 0 0.0 1.3 4.5 28
30/06/2020 22:10 22.6 61 0.0 0 0.0 0.7 2.5 143
30/06/2020 22:20 21.8 65 0.0 0 0.0 0.8 2.7 210
30/06/2020 22:30 21.3 68 0.0 0 0.0 0.6 2.1 61
30/06/2020 22:40 21.3 67 0.0 0 0.0 1.5 5.5 43
30/06/2020 22:50 21.8 66 0.0 0 0.0 1.4 5.0 312
30/06/2020 23:00 21.1 68 0.0 0 0.0 1.1 3.9 172
30/06/2020 23:10 20.8 70 0.0 0 0.0 0.4 1.5 233
30/06/2020 23:20 21.0 71 0.0 0 0.0 0.4 1.3 267
30/06/2020 23:30 21.0 70 0.0 0 0.0 0.3 0.9 59
30/06/2020 23:40 21.1 70 0.0 0 0.0 1.2 4.1 66
30/06/2020 23:50 21.2 70 0.0 0 0.0 1.2 4.4 345
Anterior Página 1 de 1 Siguiente

NOTA: Tipo de datos según el color:
   - Valores diarios o 10 minutos correctos
   - Valores diarios calculados a partir de un número de datos 10 minutos menor que 144 y mayor que 120, o de un número de datos semihorarios menor que 48 y mayor que 40 (caso de las estaciones de INTIA y del Ministerio)
   - Valores diez minutos estimados


Contacto        Enlaces        Aviso legal